createdAt,value
2023-03-05T00:01:08.678Z,12.83
2023-03-05T00:03:37.259Z,13.33
2023-03-05T00:06:07.797Z,12.80
2023-03-05T00:08:35.788Z,12.87
2023-03-05T00:11:05.772Z,13.77
2023-03-05T00:13:33.934Z,14.13
2023-03-05T00:16:04.094Z,14.20
2023-03-05T00:18:31.666Z,14.13
2023-03-05T00:20:59.297Z,13.90
2023-03-05T00:23:28.616Z,13.33
2023-03-05T00:25:56.281Z,14.13
2023-03-05T00:28:23.852Z,14.20
2023-03-05T00:30:51.473Z,12.63
2023-03-05T00:33:19.075Z,14.37
2023-03-05T00:35:47.617Z,14.10
2023-03-05T00:38:15.265Z,13.77
2023-03-05T00:40:44.278Z,13.93
2023-03-05T00:43:11.981Z,13.73
2023-03-05T00:45:39.558Z,14.43
2023-03-05T00:48:07.651Z,14.90
2023-03-05T00:50:35.210Z,14.47
2023-03-05T00:53:02.869Z,14.67
2023-03-05T00:55:30.440Z,14.63
2023-03-05T00:57:59.332Z,15.07
2023-03-05T01:00:26.866Z,13.30
2023-03-05T01:02:54.479Z,14.03
2023-03-05T01:05:22.074Z,14.70
2023-03-05T01:07:49.661Z,13.57
2023-03-05T01:10:17.532Z,14.67
2023-03-05T01:12:48.220Z,14.07
2023-03-05T01:15:17.229Z,14.90
2023-03-05T01:17:44.811Z,14.47
2023-03-05T01:20:14.321Z,13.27
2023-03-05T01:22:42.340Z,14.17
2023-03-05T01:25:10.466Z,13.97
2023-03-05T01:27:38.037Z,14.10
2023-03-05T01:30:07.774Z,13.40
2023-03-05T01:32:37.446Z,13.30
2023-03-05T01:35:07.210Z,13.00
2023-03-05T01:37:34.790Z,12.83
2023-03-05T01:40:02.589Z,12.63
2023-03-05T01:42:30.137Z,12.37
2023-03-05T01:45:02.254Z,12.33
2023-03-05T01:47:29.852Z,12.87
2023-03-05T01:49:58.869Z,11.87
2023-03-05T01:52:28.061Z,12.30
2023-03-05T01:54:57.510Z,12.33
2023-03-05T01:57:29.235Z,11.83
2023-03-05T01:59:59.257Z,13.27
2023-03-05T02:02:27.364Z,12.97
2023-03-05T02:04:58.945Z,12.40
2023-03-05T02:07:26.663Z,12.57
2023-03-05T02:09:57.052Z,13.80
2023-03-05T02:12:24.690Z,12.27
2023-03-05T02:14:59.047Z,11.87
2023-03-05T02:17:28.625Z,12.00
2023-03-05T02:20:06.776Z,11.63
2023-03-05T02:22:36.753Z,11.87
2023-03-05T02:25:14.321Z,12.40
2023-03-05T02:27:43.728Z,11.13
2023-03-05T02:30:13.499Z,12.93
2023-03-05T02:32:42.554Z,12.10
2023-03-05T02:35:10.711Z,11.50
2023-03-05T02:37:39.656Z,11.23
2023-03-05T02:40:09.390Z,12.10
2023-03-05T02:42:37.179Z,11.97
2023-03-05T02:45:06.719Z,12.47
2023-03-05T02:47:35.034Z,11.13
2023-03-05T02:50:03.415Z,11.23
2023-03-05T02:52:32.027Z,11.77
2023-03-05T02:55:01.579Z,11.03
2023-03-05T02:57:29.170Z,11.47
2023-03-05T02:59:56.830Z,11.07
2023-03-05T03:02:24.478Z,10.53
2023-03-05T03:04:52.072Z,11.43
2023-03-05T03:07:19.776Z,11.57
2023-03-05T03:09:47.402Z,11.80
2023-03-05T03:12:16.401Z,12.23
2023-03-05T03:14:44.755Z,11.57
2023-03-05T03:17:13.815Z,11.37
2023-03-05T03:19:42.018Z,10.27
2023-03-05T03:22:10.771Z,11.07
2023-03-05T03:24:39.295Z,11.70
2023-03-05T03:27:07.662Z,11.20
2023-03-05T03:29:37.803Z,10.60
2023-03-05T03:32:05.777Z,11.40
2023-03-05T03:34:33.332Z,11.67
2023-03-05T03:37:00.920Z,11.90
2023-03-05T03:39:28.938Z,11.83
2023-03-05T03:41:56.615Z,12.13
2023-03-05T03:44:24.323Z,11.00
2023-03-05T03:46:54.208Z,10.77
2023-03-05T03:49:23.837Z,10.83
2023-03-05T03:51:52.501Z,11.83
2023-03-05T03:54:20.222Z,12.20
2023-03-05T03:56:48.039Z,11.93
2023-03-05T03:59:15.854Z,12.20
2023-03-05T04:01:43.596Z,11.17
2023-03-05T04:04:13.476Z,11.70
2023-03-05T04:06:41.269Z,11.10
2023-03-05T04:09:09.389Z,11.33
2023-03-05T04:11:37.648Z,11.37
2023-03-05T04:14:05.607Z,11.27
2023-03-05T04:16:33.571Z,12.03
2023-03-05T04:19:01.105Z,11.30
2023-03-05T04:21:30.421Z,11.13
2023-03-05T04:23:58.073Z,10.97
2023-03-05T04:26:25.878Z,11.87
2023-03-05T04:28:53.518Z,11.10
2023-03-05T04:31:21.641Z,10.00
2023-03-05T04:33:49.211Z,9.10
2023-03-05T04:36:16.796Z,9.03
2023-03-05T04:38:45.737Z,7.83
2023-03-05T04:41:13.304Z,9.10
2023-03-05T04:43:40.928Z,8.10
2023-03-05T04:46:08.527Z,8.07
2023-03-05T04:48:36.135Z,7.33
2023-03-05T04:51:03.835Z,7.67
2023-03-05T04:53:31.377Z,7.40
2023-03-05T04:56:01.465Z,7.13
2023-03-05T04:58:29.437Z,8.17
2023-03-05T05:01:02.047Z,7.63
2023-03-05T05:03:29.633Z,7.47
2023-03-05T05:05:58.914Z,6.87
2023-03-05T05:08:27.257Z,6.60
2023-03-05T05:11:01.333Z,7.30
2023-03-05T05:13:29.729Z,7.53
2023-03-05T05:15:58.095Z,7.57
2023-03-05T05:18:25.937Z,7.07
2023-03-05T05:20:53.473Z,7.77
2023-03-05T05:23:21.060Z,7.97
2023-03-05T05:25:57.049Z,6.70
2023-03-05T05:28:26.045Z,7.67
2023-03-05T05:30:53.915Z,7.13
2023-03-05T05:33:21.981Z,7.10
2023-03-05T05:35:49.566Z,7.40
2023-03-05T05:38:17.154Z,7.17
2023-03-05T05:40:44.723Z,7.80
2023-03-05T05:43:12.303Z,7.80
2023-03-05T05:45:41.392Z,6.87
2023-03-05T05:48:09.221Z,7.27
2023-03-05T05:50:38.640Z,6.90
2023-03-05T05:53:06.256Z,7.23
2023-03-05T05:55:33.800Z,7.03
2023-03-05T05:58:01.421Z,8.10
2023-03-05T06:00:29.027Z,7.27
2023-03-05T06:02:57.972Z,7.60
2023-03-05T06:05:25.782Z,8.03
2023-03-05T06:07:53.340Z,6.80
2023-03-05T06:10:21.205Z,6.40
2023-03-05T06:12:48.883Z,7.00
2023-03-05T06:15:16.477Z,6.43
2023-03-05T06:17:44.046Z,6.50
2023-03-05T06:20:14.000Z,6.57
2023-03-05T06:22:41.876Z,6.17
2023-03-05T06:25:10.698Z,6.90
2023-03-05T06:27:38.699Z,6.70
2023-03-05T06:30:07.839Z,7.03
2023-03-05T06:32:35.439Z,6.80
2023-03-05T06:35:03.096Z,6.33
2023-03-05T06:37:31.994Z,7.20
2023-03-05T06:39:59.680Z,6.93
2023-03-05T06:42:27.265Z,7.30
2023-03-05T06:44:56.477Z,6.70
2023-03-05T06:47:24.086Z,7.67
2023-03-05T06:49:51.681Z,7.53
2023-03-05T06:52:19.273Z,6.77
2023-03-05T06:54:48.165Z,6.80
2023-03-05T06:57:15.767Z,6.13
2023-03-05T06:59:43.352Z,5.73
2023-03-05T07:02:12.169Z,6.10
2023-03-05T07:04:39.735Z,5.07
2023-03-05T07:07:07.615Z,4.73
2023-03-05T07:09:35.198Z,4.17
2023-03-05T07:12:04.106Z,4.03
2023-03-05T07:14:33.919Z,4.47
2023-03-05T07:17:01.515Z,3.90
2023-03-05T07:19:29.044Z,3.50
2023-03-05T07:21:56.643Z,3.80
2023-03-05T07:24:24.694Z,3.67
2023-03-05T07:26:52.265Z,3.37
2023-03-05T07:29:21.239Z,3.27
2023-03-05T07:31:48.799Z,3.60
2023-03-05T07:34:16.508Z,2.97
2023-03-05T07:36:44.186Z,3.27
2023-03-05T07:39:12.611Z,3.87
2023-03-05T07:41:40.485Z,3.33
2023-03-05T07:44:08.059Z,3.50
2023-03-05T07:46:37.059Z,3.20
2023-03-05T07:49:05.039Z,3.30
2023-03-05T07:51:32.651Z,3.33
2023-03-05T07:54:00.755Z,4.20
2023-03-05T07:56:31.769Z,3.37
2023-03-05T07:58:59.954Z,4.20
2023-03-05T08:01:27.558Z,3.53
2023-03-05T08:03:56.667Z,3.70
2023-03-05T08:06:24.329Z,4.37
2023-03-05T08:08:51.896Z,3.73
2023-03-05T08:11:19.609Z,4.13
2023-03-05T08:13:47.312Z,4.13
2023-03-05T08:16:17.197Z,3.63
2023-03-05T08:18:45.003Z,3.60
2023-03-05T08:21:22.704Z,4.30
2023-03-05T08:23:50.562Z,4.13
2023-03-05T08:26:19.911Z,4.40
2023-03-05T08:28:47.933Z,4.07
2023-03-05T08:31:17.548Z,4.17
2023-03-05T08:33:45.161Z,4.90
2023-03-05T08:36:13.254Z,5.60
2023-03-05T08:38:44.513Z,5.77
2023-03-05T08:41:12.195Z,5.13
2023-03-05T08:43:40.204Z,5.50
2023-03-05T08:46:08.315Z,5.10
2023-03-05T08:48:35.864Z,4.83
2023-03-05T08:51:07.604Z,5.23
2023-03-05T08:53:35.226Z,5.03
2023-03-05T08:56:04.616Z,5.13
2023-03-05T08:58:32.410Z,4.63
2023-03-05T09:01:00.311Z,4.57
2023-03-05T09:03:28.074Z,5.47
2023-03-05T09:06:00.081Z,5.27
2023-03-05T09:08:27.769Z,5.20
2023-03-05T09:10:55.874Z,6.47
2023-03-05T09:13:24.752Z,5.27
2023-03-05T09:15:56.081Z,6.47
2023-03-05T09:18:23.716Z,4.77
2023-03-05T09:20:51.264Z,5.20
2023-03-05T09:23:18.836Z,5.20
2023-03-05T09:25:46.822Z,6.27
2023-03-05T09:28:14.677Z,5.27
2023-03-05T09:30:43.641Z,5.40
2023-03-05T09:33:11.249Z,5.67
2023-03-05T09:35:38.943Z,5.23
2023-03-05T09:38:06.745Z,5.43
2023-03-05T09:40:45.975Z,5.57
2023-03-05T09:43:20.723Z,5.10
2023-03-05T09:46:00.194Z,5.47
2023-03-05T09:48:41.389Z,5.40
2023-03-05T09:51:14.007Z,5.23
2023-03-05T09:53:46.745Z,5.70
2023-03-05T09:56:17.178Z,5.37
2023-03-05T09:58:46.550Z,5.67
2023-03-05T10:01:19.993Z,5.33
2023-03-05T10:03:54.723Z,4.83
2023-03-05T10:06:24.937Z,5.40
2023-03-05T10:08:55.762Z,5.77
2023-03-05T10:11:36.527Z,5.70
2023-03-05T10:14:04.620Z,5.27
2023-03-05T10:16:44.241Z,5.60
2023-03-05T10:19:15.522Z,5.50
2023-03-05T10:21:49.642Z,5.47
2023-03-05T10:24:20.248Z,5.63
2023-03-05T10:26:59.987Z,5.57
2023-03-05T10:29:41.350Z,5.33
2023-03-05T10:32:19.258Z,4.43
2023-03-05T10:35:12.163Z,4.73
2023-03-05T10:38:04.795Z,4.47
2023-03-05T10:40:37.655Z,4.37
2023-03-05T10:43:11.569Z,4.43
2023-03-05T10:45:42.387Z,4.77
2023-03-05T10:48:17.298Z,4.17
2023-03-05T10:50:47.453Z,4.27
2023-03-05T10:53:19.740Z,4.13
2023-03-05T10:55:47.298Z,3.60
2023-03-05T10:58:16.983Z,3.70
2023-03-05T11:00:59.834Z,3.80
2023-03-05T11:03:49.046Z,3.83
2023-03-05T11:06:17.145Z,4.40
2023-03-05T11:08:44.793Z,4.23
2023-03-05T11:11:15.382Z,3.73
2023-03-05T11:13:52.934Z,4.40
2023-03-05T11:16:22.385Z,4.27
2023-03-05T11:18:51.878Z,4.50
2023-03-05T11:21:23.832Z,3.63
2023-03-05T11:24:10.008Z,4.30
2023-03-05T11:26:37.588Z,4.47
2023-03-05T11:29:10.832Z,3.80
2023-03-05T11:31:38.532Z,4.17
2023-03-05T11:34:13.191Z,4.13
2023-03-05T11:36:43.160Z,3.83
2023-03-05T11:39:12.960Z,4.00
2023-03-05T11:41:42.394Z,4.00
2023-03-05T11:44:13.700Z,4.30
2023-03-05T11:46:44.667Z,4.60
2023-03-05T11:49:17.519Z,4.03
2023-03-05T11:51:49.020Z,4.43
2023-03-05T11:54:20.911Z,3.77
2023-03-05T11:56:49.317Z,3.30
2023-03-05T11:59:19.177Z,3.57
2023-03-05T12:01:48.201Z,3.53
2023-03-05T12:04:17.722Z,3.87
2023-03-05T12:06:48.007Z,3.80
2023-03-05T12:09:21.087Z,3.93
2023-03-05T12:11:50.040Z,4.60
2023-03-05T12:14:22.263Z,3.97
2023-03-05T12:16:53.272Z,4.60
2023-03-05T12:19:48.995Z,4.00
2023-03-05T12:22:18.795Z,3.60
2023-03-05T12:24:46.807Z,4.20
2023-03-05T12:27:16.805Z,3.97
2023-03-05T12:29:47.310Z,3.83
2023-03-05T12:33:02.582Z,4.53
2023-03-05T12:35:35.897Z,4.33
2023-03-05T12:38:25.570Z,3.40
2023-03-05T12:40:53.653Z,3.83
2023-03-05T12:43:32.895Z,3.43
2023-03-05T12:46:25.900Z,4.17
2023-03-05T12:48:53.773Z,3.60
2023-03-05T12:51:39.974Z,3.37
2023-03-05T12:54:28.610Z,3.40
2023-03-05T12:56:57.785Z,2.83
2023-03-05T12:59:31.069Z,3.17
2023-03-05T13:02:00.451Z,3.60
2023-03-05T13:04:30.271Z,2.90
2023-03-05T13:07:04.160Z,2.97
2023-03-05T13:09:34.857Z,3.20
2023-03-05T13:12:04.438Z,3.50
2023-03-05T13:14:37.173Z,3.53
2023-03-05T13:17:27.690Z,3.37
2023-03-05T13:19:55.427Z,3.73
2023-03-05T13:22:24.641Z,3.50
2023-03-05T13:25:06.445Z,3.57
2023-03-05T13:27:34.971Z,3.30
2023-03-05T13:30:02.657Z,4.43
2023-03-05T13:32:33.416Z,3.90
2023-03-05T13:35:02.389Z,4.10
2023-03-05T13:37:32.321Z,3.97
2023-03-05T13:40:01.894Z,3.53
2023-03-05T13:42:32.875Z,9.87
2023-03-05T13:45:01.970Z,5.37
2023-03-05T13:47:33.312Z,3.90
2023-03-05T13:50:05.096Z,9.30
2023-03-05T13:52:35.843Z,9.57
2023-03-05T13:55:05.876Z,14.77
2023-03-05T13:57:37.006Z,4.97
2023-03-05T14:00:06.690Z,4.00
2023-03-05T14:02:35.624Z,3.77
2023-03-05T14:05:03.477Z,4.30
2023-03-05T14:07:33.599Z,3.90
2023-03-05T14:10:03.090Z,4.20
2023-03-05T14:12:35.471Z,4.07
2023-03-05T14:15:07.163Z,5.47
2023-03-05T14:17:43.623Z,6.17
2023-03-05T14:20:23.027Z,5.20
2023-03-05T14:22:51.664Z,5.77
2023-03-05T14:25:40.617Z,7.17
2023-03-05T14:28:17.848Z,7.27
2023-03-05T14:30:47.152Z,3.90
2023-03-05T14:33:16.489Z,5.27
2023-03-05T14:35:49.722Z,3.53
2023-03-05T14:38:25.794Z,5.40
2023-03-05T14:40:53.371Z,4.50
2023-03-05T14:43:20.969Z,5.20
2023-03-05T14:45:48.715Z,5.17
2023-03-05T14:48:19.862Z,4.93
2023-03-05T14:50:51.570Z,6.37
2023-03-05T14:53:21.434Z,10.17
2023-03-05T14:55:50.760Z,10.20
2023-03-05T14:58:21.576Z,6.27
2023-03-05T15:00:51.188Z,6.63
2023-03-05T15:03:21.442Z,6.93
2023-03-05T15:05:50.934Z,8.97
2023-03-05T15:08:20.784Z,4.73
2023-03-05T15:10:48.726Z,5.37
2023-03-05T15:13:17.048Z,4.67
2023-03-05T15:15:45.251Z,4.83
2023-03-05T15:18:13.858Z,4.40
2023-03-05T15:20:42.880Z,4.10
2023-03-05T15:23:10.501Z,5.90
2023-03-05T15:25:38.222Z,6.43
2023-03-05T15:28:06.012Z,12.87
2023-03-05T15:30:35.396Z,15.07
2023-03-05T15:33:06.228Z,11.23
2023-03-05T15:35:34.093Z,11.13
2023-03-05T15:38:03.116Z,11.07
2023-03-05T15:40:30.818Z,11.63
2023-03-05T15:43:00.174Z,7.23
2023-03-05T15:45:27.966Z,5.40
2023-03-05T15:47:55.649Z,6.67
2023-03-05T15:50:23.374Z,10.17
2023-03-05T15:52:50.963Z,7.97
2023-03-05T15:55:20.145Z,4.70
2023-03-05T15:57:49.415Z,3.70
2023-03-05T16:00:20.241Z,3.63
2023-03-05T16:02:48.663Z,3.10
2023-03-05T16:05:16.478Z,3.77
2023-03-05T16:07:46.014Z,3.57
2023-03-05T16:10:14.746Z,3.57
2023-03-05T16:12:43.709Z,3.73
2023-03-05T16:15:13.057Z,2.90
2023-03-05T16:17:42.566Z,2.73
2023-03-05T16:20:12.687Z,3.00
2023-03-05T16:22:40.442Z,4.30
2023-03-05T16:25:08.868Z,5.93
2023-03-05T16:27:36.500Z,8.07
2023-03-05T16:30:06.615Z,6.27
2023-03-05T16:32:34.366Z,5.80
2023-03-05T16:35:01.973Z,6.47
2023-03-05T16:37:29.687Z,9.47
2023-03-05T16:39:58.805Z,16.20
2023-03-05T16:42:26.547Z,5.17
2023-03-05T16:44:54.219Z,3.60
2023-03-05T16:47:23.318Z,3.90
2023-03-05T16:49:50.926Z,3.97
2023-03-05T16:52:19.797Z,4.20
2023-03-05T16:54:48.450Z,3.70
2023-03-05T16:57:16.385Z,4.13
2023-03-05T16:59:44.372Z,3.50
2023-03-05T17:02:13.185Z,3.80
2023-03-05T17:04:42.538Z,2.93
2023-03-05T17:07:10.567Z,3.50
2023-03-05T17:09:38.309Z,3.50
2023-03-05T17:12:06.116Z,3.13
2023-03-05T17:14:33.722Z,3.87
2023-03-05T17:17:02.313Z,3.40
2023-03-05T17:19:30.033Z,3.63
2023-03-05T17:21:58.950Z,4.10
2023-03-05T17:24:26.735Z,3.03
2023-03-05T17:26:54.348Z,3.33
2023-03-05T17:29:23.104Z,3.70
2023-03-05T17:31:53.068Z,3.53
2023-03-05T17:34:33.323Z,3.13
2023-03-05T17:37:03.077Z,3.40
2023-03-05T17:39:30.809Z,3.27
2023-03-05T17:41:58.364Z,3.63
2023-03-05T17:44:25.988Z,3.77
2023-03-05T17:46:53.617Z,4.10
2023-03-05T17:49:21.169Z,4.50
2023-03-05T17:51:48.791Z,4.40
2023-03-05T17:54:17.775Z,5.10
2023-03-05T17:56:45.392Z,3.60
2023-03-05T17:59:12.975Z,2.80
2023-03-05T18:01:40.608Z,3.20
2023-03-05T18:04:08.695Z,2.83
2023-03-05T18:06:38.859Z,2.50
2023-03-05T18:09:06.860Z,2.53
2023-03-05T18:11:36.877Z,2.23
2023-03-05T18:14:05.176Z,2.50
2023-03-05T18:16:32.954Z,5.00
2023-03-05T18:19:00.772Z,2.70
2023-03-05T18:21:28.896Z,2.20
2023-03-05T18:23:56.584Z,2.43
2023-03-05T18:26:24.162Z,2.50
2023-03-05T18:28:53.251Z,2.43
2023-03-05T18:31:20.821Z,2.27
2023-03-05T18:33:49.999Z,2.50
2023-03-05T18:36:18.290Z,2.17
2023-03-05T18:38:45.843Z,2.50
2023-03-05T18:41:19.673Z,2.50
2023-03-05T18:43:47.540Z,3.10
2023-03-05T18:46:16.824Z,3.37
2023-03-05T18:48:44.651Z,3.10
2023-03-05T18:51:15.395Z,2.83
2023-03-05T18:53:42.947Z,3.20
2023-03-05T18:56:11.058Z,3.13
2023-03-05T18:58:39.511Z,3.53
2023-03-05T19:01:09.147Z,3.50
2023-03-05T19:03:38.151Z,3.03
2023-03-05T19:06:07.426Z,2.70
2023-03-05T19:08:35.057Z,2.90
2023-03-05T19:11:03.300Z,3.23
2023-03-05T19:13:35.844Z,2.93
2023-03-05T19:16:08.485Z,2.43
2023-03-05T19:18:46.982Z,2.90
2023-03-05T19:21:14.523Z,2.87
2023-03-05T19:23:42.094Z,2.87
2023-03-05T19:26:09.669Z,3.13
2023-03-05T19:28:37.312Z,3.60
2023-03-05T19:31:05.013Z,3.10
2023-03-05T19:33:32.589Z,2.60
2023-03-05T19:36:01.558Z,3.60
2023-03-05T19:38:29.141Z,4.30
2023-03-05T19:40:56.709Z,4.13
2023-03-05T19:43:24.335Z,4.20
2023-03-05T19:45:51.985Z,3.67
2023-03-05T19:48:19.596Z,3.83
2023-03-05T19:50:47.174Z,3.83
2023-03-05T19:53:16.078Z,4.00
2023-03-05T19:55:43.660Z,3.50
2023-03-05T19:58:11.254Z,3.10
2023-03-05T20:00:38.865Z,3.50
2023-03-05T20:03:06.424Z,3.57
2023-03-05T20:05:34.021Z,3.57
2023-03-05T20:08:01.695Z,3.77
2023-03-05T20:10:30.572Z,3.80
2023-03-05T20:12:58.438Z,4.00
2023-03-05T20:15:29.154Z,3.67
2023-03-05T20:17:57.749Z,4.17
2023-03-05T20:20:25.592Z,3.73
2023-03-05T20:22:53.625Z,3.47
2023-03-05T20:25:24.727Z,3.40
2023-03-05T20:27:53.694Z,3.70
2023-03-05T20:30:21.439Z,3.90
2023-03-05T20:32:49.071Z,3.60
2023-03-05T20:35:18.140Z,3.70
2023-03-05T20:38:00.059Z,3.37
2023-03-05T20:40:27.824Z,3.27
2023-03-05T20:42:56.744Z,3.70
2023-03-05T20:45:24.280Z,3.60
2023-03-05T20:47:51.914Z,3.30
2023-03-05T20:50:19.747Z,3.80
2023-03-05T20:52:47.516Z,3.57
2023-03-05T20:55:15.123Z,4.33
2023-03-05T20:57:44.078Z,5.13
2023-03-05T21:00:14.304Z,4.93
2023-03-05T21:02:41.960Z,4.30
2023-03-05T21:05:10.218Z,4.60
2023-03-05T21:07:37.805Z,4.90
2023-03-05T21:10:06.519Z,4.87
2023-03-05T21:12:34.267Z,4.57
2023-03-05T21:15:01.896Z,4.77
2023-03-05T21:17:30.827Z,4.60
2023-03-05T21:19:58.379Z,3.90
2023-03-05T21:22:25.991Z,3.77
2023-03-05T21:25:02.106Z,3.70
2023-03-05T21:27:29.913Z,3.80
2023-03-05T21:29:57.530Z,4.00
2023-03-05T21:32:25.540Z,4.03
2023-03-05T21:34:54.535Z,3.80
2023-03-05T21:37:22.118Z,4.10
2023-03-05T21:39:49.723Z,3.80
2023-03-05T21:42:17.251Z,3.60
2023-03-05T21:44:44.784Z,3.93
2023-03-05T21:47:12.335Z,3.90
2023-03-05T21:49:39.866Z,3.80
2023-03-05T21:52:11.561Z,3.60
2023-03-05T21:54:40.016Z,4.00
2023-03-05T21:57:08.795Z,3.40
2023-03-05T21:59:36.669Z,3.57
2023-03-05T22:02:04.238Z,3.60
2023-03-05T22:04:31.816Z,3.57
2023-03-05T22:06:59.351Z,4.17
2023-03-05T22:09:28.338Z,3.73
2023-03-05T22:11:55.886Z,3.43
2023-03-05T22:14:23.882Z,3.30
2023-03-05T22:16:53.290Z,3.17
2023-03-05T22:19:21.110Z,2.90
2023-03-05T22:21:49.104Z,3.00
2023-03-05T22:24:16.666Z,3.30
2023-03-05T22:26:45.655Z,3.33
2023-03-05T22:29:13.276Z,3.40
2023-03-05T22:31:41.411Z,3.00
2023-03-05T22:34:09.041Z,3.93
2023-03-05T22:36:36.630Z,3.23
2023-03-05T22:39:04.611Z,3.50
2023-03-05T22:41:32.171Z,3.20
2023-03-05T22:44:01.086Z,3.00
2023-03-05T22:46:28.785Z,3.37
2023-03-05T22:48:56.407Z,3.07
2023-03-05T22:51:24.047Z,2.93
2023-03-05T22:53:51.704Z,3.50
2023-03-05T22:56:20.619Z,3.30
2023-03-05T22:58:48.383Z,2.77
2023-03-05T23:01:19.201Z,3.13
2023-03-05T23:03:53.190Z,3.07
2023-03-05T23:06:20.881Z,2.93
2023-03-05T23:08:48.479Z,3.03
2023-03-05T23:11:16.111Z,3.00
2023-03-05T23:13:43.784Z,2.90
2023-03-05T23:16:11.435Z,2.67
2023-03-05T23:18:40.342Z,2.70
2023-03-05T23:21:07.981Z,2.90
2023-03-05T23:23:35.574Z,2.70
2023-03-05T23:26:03.165Z,2.70
2023-03-05T23:28:30.835Z,2.77
2023-03-05T23:30:58.752Z,2.90
2023-03-05T23:33:26.718Z,3.03
2023-03-05T23:35:57.377Z,2.80
2023-03-05T23:38:26.127Z,3.40
2023-03-05T23:40:54.784Z,3.07
2023-03-05T23:43:24.522Z,2.73
2023-03-05T23:45:54.773Z,2.60
2023-03-05T23:48:23.026Z,2.67
2023-03-05T23:50:53.677Z,2.73
2023-03-05T23:53:25.348Z,3.00
2023-03-05T23:55:53.504Z,2.93
2023-03-05T23:58:21.405Z,2.80
